sensor_id;sensor_type;location;lat;lon;timestamp;temperature;humidity
5846;DHT22;2949;50.778;7.094;2022-08-19T00:02:02;18.30;99.90
5846;DHT22;2949;50.778;7.094;2022-08-19T00:04:31;18.40;99.90
5846;DHT22;2949;50.778;7.094;2022-08-19T00:06:58;18.30;99.90
5846;DHT22;2949;50.778;7.094;2022-08-19T00:09:25;18.40;99.90
5846;DHT22;2949;50.778;7.094;2022-08-19T00:11:52;18.30;99.90
5846;DHT22;2949;50.778;7.094;2022-08-19T00:14:18;18.40;99.90
5846;DHT22;2949;50.778;7.094;2022-08-19T00:16:46;18.30;99.90
5846;DHT22;2949;50.778;7.094;2022-08-19T00:19:13;18.30;99.90
5846;DHT22;2949;50.778;7.094;2022-08-19T00:21:39;18.30;99.90
5846;DHT22;2949;50.778;7.094;2022-08-19T00:24:09;18.30;99.90
5846;DHT22;2949;50.778;7.094;2022-08-19T00:26:37;18.30;99.90
5846;DHT22;2949;50.778;7.094;2022-08-19T00:29:04;18.30;99.90
5846;DHT22;2949;50.778;7.094;2022-08-19T00:31:30;18.20;99.90
5846;DHT22;2949;50.778;7.094;2022-08-19T00:33:56;18.20;99.90
5846;DHT22;2949;50.778;7.094;2022-08-19T00:36:22;18.20;99.90
5846;DHT22;2949;50.778;7.094;2022-08-19T00:38:48;18.20;99.90
5846;DHT22;2949;50.778;7.094;2022-08-19T00:41:16;18.20;99.90
5846;DHT22;2949;50.778;7.094;2022-08-19T00:43:43;18.10;99.90
5846;DHT22;2949;50.778;7.094;2022-08-19T00:46:09;18.10;99.90
5846;DHT22;2949;50.778;7.094;2022-08-19T00:48:35;18.10;99.90
5846;DHT22;2949;50.778;7.094;2022-08-19T00:51:02;18.00;99.90
5846;DHT22;2949;50.778;7.094;2022-08-19T00:53:31;18.00;99.90
5846;DHT22;2949;50.778;7.094;2022-08-19T00:56:00;18.00;99.90
5846;DHT22;2949;50.778;7.094;2022-08-19T00:58:29;17.90;99.90
5846;DHT22;2949;50.778;7.094;2022-08-19T01:00:55;17.90;99.90
5846;DHT22;2949;50.778;7.094;2022-08-19T01:03:21;17.90;99.90
5846;DHT22;2949;50.778;7.094;2022-08-19T01:05:49;17.90;99.90
5846;DHT22;2949;50.778;7.094;2022-08-19T01:08:17;17.80;99.90
5846;DHT22;2949;50.778;7.094;2022-08-19T01:10:47;17.80;99.90
5846;DHT22;2949;50.778;7.094;2022-08-19T01:13:20;17.80;99.90
5846;DHT22;2949;50.778;7.094;2022-08-19T01:15:52;17.70;99.90
5846;DHT22;2949;50.778;7.094;2022-08-19T01:18:19;17.70;99.90
5846;DHT22;2949;50.778;7.094;2022-08-19T01:20:49;17.60;99.90
5846;DHT22;2949;50.778;7.094;2022-08-19T01:23:16;17.60;99.90
5846;DHT22;2949;50.778;7.094;2022-08-19T01:25:45;17.50;99.90
5846;DHT22;2949;50.778;7.094;2022-08-19T01:28:24;17.50;99.90
5846;DHT22;2949;50.778;7.094;2022-08-19T01:30:51;17.40;99.90
5846;DHT22;2949;50.778;7.094;2022-08-19T01:33:17;17.40;99.90
5846;DHT22;2949;50.778;7.094;2022-08-19T01:35:44;17.40;99.90
5846;DHT22;2949;50.778;7.094;2022-08-19T01:38:21;17.40;99.90
5846;DHT22;2949;50.778;7.094;2022-08-19T01:40:47;17.40;99.90
5846;DHT22;2949;50.778;7.094;2022-08-19T01:43:13;17.40;99.90
5846;DHT22;2949;50.778;7.094;2022-08-19T01:45:38;17.50;99.90
5846;DHT22;2949;50.778;7.094;2022-08-19T01:48:09;17.50;99.90
5846;DHT22;2949;50.778;7.094;2022-08-19T01:50:35;17.50;99.90
5846;DHT22;2949;50.778;7.094;2022-08-19T01:53:04;17.60;99.90
5846;DHT22;2949;50.778;7.094;2022-08-19T01:55:30;17.60;99.90
5846;DHT22;2949;50.778;7.094;2022-08-19T01:57:58;17.60;99.90
5846;DHT22;2949;50.778;7.094;2022-08-19T02:00:28;17.60;99.90
5846;DHT22;2949;50.778;7.094;2022-08-19T02:02:54;17.60;99.90
5846;DHT22;2949;50.778;7.094;2022-08-19T02:05:20;17.50;99.90
5846;DHT22;2949;50.778;7.094;2022-08-19T02:07:47;17.60;99.90
5846;DHT22;2949;50.778;7.094;2022-08-19T02:10:22;17.50;99.90
5846;DHT22;2949;50.778;7.094;2022-08-19T02:12:48;17.40;99.90
5846;DHT22;2949;50.778;7.094;2022-08-19T02:15:15;17.40;99.90
5846;DHT22;2949;50.778;7.094;2022-08-19T02:17:41;17.30;99.90
5846;DHT22;2949;50.778;7.094;2022-08-19T02:20:07;17.30;99.90
5846;DHT22;2949;50.778;7.094;2022-08-19T02:22:33;17.30;99.90
5846;DHT22;2949;50.778;7.094;2022-08-19T02:24:58;17.30;99.90
5846;DHT22;2949;50.778;7.094;2022-08-19T02:27:24;17.20;99.90
5846;DHT22;2949;50.778;7.094;2022-08-19T02:29:51;17.20;99.90
5846;DHT22;2949;50.778;7.094;2022-08-19T02:32:18;17.20;99.90
5846;DHT22;2949;50.778;7.094;2022-08-19T02:34:45;17.10;99.90
5846;DHT22;2949;50.778;7.094;2022-08-19T02:37:11;17.20;99.90
5846;DHT22;2949;50.778;7.094;2022-08-19T02:39:57;17.20;99.90
5846;DHT22;2949;50.778;7.094;2022-08-19T02:42:23;17.20;99.90
5846;DHT22;2949;50.778;7.094;2022-08-19T02:44:48;17.20;99.90
5846;DHT22;2949;50.778;7.094;2022-08-19T02:47:14;17.30;99.90
5846;DHT22;2949;50.778;7.094;2022-08-19T02:49:40;17.30;99.90
5846;DHT22;2949;50.778;7.094;2022-08-19T02:52:06;17.30;99.90
5846;DHT22;2949;50.778;7.094;2022-08-19T02:54:31;17.30;99.90
5846;DHT22;2949;50.778;7.094;2022-08-19T02:56:57;17.40;99.90
5846;DHT22;2949;50.778;7.094;2022-08-19T02:59:23;17.40;99.90
5846;DHT22;2949;50.778;7.094;2022-08-19T03:01:50;17.40;99.90
5846;DHT22;2949;50.778;7.094;2022-08-19T03:04:16;17.30;99.90
5846;DHT22;2949;50.778;7.094;2022-08-19T03:06:43;17.30;99.90
5846;DHT22;2949;50.778;7.094;2022-08-19T03:09:10;17.30;99.90
5846;DHT22;2949;50.778;7.094;2022-08-19T03:11:37;17.20;99.90
5846;DHT22;2949;50.778;7.094;2022-08-19T03:14:04;17.20;99.90
5846;DHT22;2949;50.778;7.094;2022-08-19T03:16:34;17.20;99.90
5846;DHT22;2949;50.778;7.094;2022-08-19T03:19:00;17.10;99.90
5846;DHT22;2949;50.778;7.094;2022-08-19T03:21:28;17.10;99.90
5846;DHT22;2949;50.778;7.094;2022-08-19T03:23:56;17.00;99.90
5846;DHT22;2949;50.778;7.094;2022-08-19T03:26:22;16.90;99.90
5846;DHT22;2949;50.778;7.094;2022-08-19T03:28:47;16.90;99.90
5846;DHT22;2949;50.778;7.094;2022-08-19T03:31:16;16.90;99.90
5846;DHT22;2949;50.778;7.094;2022-08-19T03:33:42;16.90;99.90
5846;DHT22;2949;50.778;7.094;2022-08-19T03:36:18;16.90;99.90
5846;DHT22;2949;50.778;7.094;2022-08-19T03:38:46;17.00;99.90
5846;DHT22;2949;50.778;7.094;2022-08-19T03:41:16;16.90;99.90
5846;DHT22;2949;50.778;7.094;2022-08-19T03:43:43;17.00;99.90
5846;DHT22;2949;50.778;7.094;2022-08-19T03:46:14;17.00;99.90
5846;DHT22;2949;50.778;7.094;2022-08-19T03:48:42;17.00;99.90
5846;DHT22;2949;50.778;7.094;2022-08-19T03:51:18;16.90;99.90
5846;DHT22;2949;50.778;7.094;2022-08-19T03:53:45;16.90;99.90
5846;DHT22;2949;50.778;7.094;2022-08-19T03:56:10;16.90;99.90
5846;DHT22;2949;50.778;7.094;2022-08-19T03:58:36;16.90;99.90
5846;DHT22;2949;50.778;7.094;2022-08-19T04:01:07;16.90;99.90
5846;DHT22;2949;50.778;7.094;2022-08-19T04:03:33;16.90;99.90
5846;DHT22;2949;50.778;7.094;2022-08-19T04:06:19;16.90;99.90
5846;DHT22;2949;50.778;7.094;2022-08-19T04:08:48;17.00;99.90
5846;DHT22;2949;50.778;7.094;2022-08-19T04:11:19;17.10;99.90
5846;DHT22;2949;50.778;7.094;2022-08-19T04:13:47;17.10;99.90
5846;DHT22;2949;50.778;7.094;2022-08-19T04:16:13;17.00;99.90
5846;DHT22;2949;50.778;7.094;2022-08-19T04:18:39;17.00;99.90
5846;DHT22;2949;50.778;7.094;2022-08-19T04:21:06;17.00;99.90
5846;DHT22;2949;50.778;7.094;2022-08-19T04:23:33;17.00;99.90
5846;DHT22;2949;50.778;7.094;2022-08-19T04:25:59;16.90;99.90
5846;DHT22;2949;50.778;7.094;2022-08-19T04:28:25;16.90;99.90
5846;DHT22;2949;50.778;7.094;2022-08-19T04:30:53;17.00;99.90
5846;DHT22;2949;50.778;7.094;2022-08-19T04:33:21;17.00;99.90
5846;DHT22;2949;50.778;7.094;2022-08-19T04:35:50;17.10;99.90
5846;DHT22;2949;50.778;7.094;2022-08-19T04:38:19;17.10;99.90
5846;DHT22;2949;50.778;7.094;2022-08-19T04:40:48;17.20;99.90
5846;DHT22;2949;50.778;7.094;2022-08-19T04:43:34;17.20;99.90
5846;DHT22;2949;50.778;7.094;2022-08-19T04:46:08;17.30;99.90
5846;DHT22;2949;50.778;7.094;2022-08-19T04:48:35;17.40;99.90
5846;DHT22;2949;50.778;7.094;2022-08-19T04:51:01;17.40;99.90
5846;DHT22;2949;50.778;7.094;2022-08-19T04:53:29;17.50;99.90
5846;DHT22;2949;50.778;7.094;2022-08-19T04:55:59;17.50;99.90
5846;DHT22;2949;50.778;7.094;2022-08-19T04:58:27;17.50;99.90
5846;DHT22;2949;50.778;7.094;2022-08-19T05:00:53;17.50;99.90
5846;DHT22;2949;50.778;7.094;2022-08-19T05:03:19;17.60;99.90
5846;DHT22;2949;50.778;7.094;2022-08-19T05:05:46;17.60;99.90
5846;DHT22;2949;50.778;7.094;2022-08-19T05:08:18;17.60;99.90
5846;DHT22;2949;50.778;7.094;2022-08-19T05:10:49;17.60;99.90
5846;DHT22;2949;50.778;7.094;2022-08-19T05:13:17;17.60;99.90
5846;DHT22;2949;50.778;7.094;2022-08-19T05:15:43;17.70;99.90
5846;DHT22;2949;50.778;7.094;2022-08-19T05:18:10;17.80;99.90
5846;DHT22;2949;50.778;7.094;2022-08-19T05:20:54;17.80;99.90
5846;DHT22;2949;50.778;7.094;2022-08-19T05:23:39;17.90;99.90
5846;DHT22;2949;50.778;7.094;2022-08-19T05:26:05;18.10;99.90
5846;DHT22;2949;50.778;7.094;2022-08-19T05:28:31;18.20;99.90
5846;DHT22;2949;50.778;7.094;2022-08-19T05:30:56;18.30;99.90
5846;DHT22;2949;50.778;7.094;2022-08-19T05:33:22;18.30;99.90
5846;DHT22;2949;50.778;7.094;2022-08-19T05:35:50;18.50;99.90
5846;DHT22;2949;50.778;7.094;2022-08-19T05:38:17;18.60;99.90
5846;DHT22;2949;50.778;7.094;2022-08-19T05:40:43;18.70;99.90
5846;DHT22;2949;50.778;7.094;2022-08-19T05:43:15;18.70;99.90
5846;DHT22;2949;50.778;7.094;2022-08-19T05:45:43;18.80;99.90
5846;DHT22;2949;50.778;7.094;2022-08-19T05:48:10;18.80;99.90
5846;DHT22;2949;50.778;7.094;2022-08-19T05:50:37;18.90;99.90
5846;DHT22;2949;50.778;7.094;2022-08-19T05:53:04;19.00;99.90
5846;DHT22;2949;50.778;7.094;2022-08-19T05:55:29;18.90;99.90
5846;DHT22;2949;50.778;7.094;2022-08-19T05:57:55;18.90;99.90
5846;DHT22;2949;50.778;7.094;2022-08-19T06:00:21;19.00;99.90
5846;DHT22;2949;50.778;7.094;2022-08-19T06:02:46;19.00;99.90
5846;DHT22;2949;50.778;7.094;2022-08-19T06:05:12;19.10;99.90
5846;DHT22;2949;50.778;7.094;2022-08-19T06:07:39;19.10;99.90
5846;DHT22;2949;50.778;7.094;2022-08-19T06:10:08;19.20;99.90
5846;DHT22;2949;50.778;7.094;2022-08-19T06:12:35;19.30;99.90
5846;DHT22;2949;50.778;7.094;2022-08-19T06:15:11;19.30;99.90
5846;DHT22;2949;50.778;7.094;2022-08-19T06:17:38;19.50;99.90
5846;DHT22;2949;50.778;7.094;2022-08-19T06:20:06;19.60;99.90
5846;DHT22;2949;50.778;7.094;2022-08-19T06:22:38;19.70;99.90
5846;DHT22;2949;50.778;7.094;2022-08-19T06:25:04;19.80;99.90
5846;DHT22;2949;50.778;7.094;2022-08-19T06:27:29;20.10;99.90
5846;DHT22;2949;50.778;7.094;2022-08-19T06:29:57;20.50;99.90
5846;DHT22;2949;50.778;7.094;2022-08-19T06:32:22;21.00;99.90
5846;DHT22;2949;50.778;7.094;2022-08-19T06:34:48;21.40;99.90
5846;DHT22;2949;50.778;7.094;2022-08-19T06:37:14;21.60;99.90
5846;DHT22;2949;50.778;7.094;2022-08-19T06:39:42;21.60;99.90
5846;DHT22;2949;50.778;7.094;2022-08-19T06:42:08;21.70;99.90
5846;DHT22;2949;50.778;7.094;2022-08-19T06:44:35;22.00;99.90
5846;DHT22;2949;50.778;7.094;2022-08-19T06:47:07;22.30;99.90
5846;DHT22;2949;50.778;7.094;2022-08-19T06:49:34;22.60;99.90
5846;DHT22;2949;50.778;7.094;2022-08-19T06:52:00;22.90;99.90
5846;DHT22;2949;50.778;7.094;2022-08-19T06:54:26;23.30;99.90
5846;DHT22;2949;50.778;7.094;2022-08-19T06:56:53;23.70;99.90
5846;DHT22;2949;50.778;7.094;2022-08-19T06:59:21;23.70;99.90
5846;DHT22;2949;50.778;7.094;2022-08-19T07:01:53;23.60;99.90
5846;DHT22;2949;50.778;7.094;2022-08-19T07:04:25;23.80;99.90
5846;DHT22;2949;50.778;7.094;2022-08-19T07:07:14;24.10;99.90
5846;DHT22;2949;50.778;7.094;2022-08-19T07:09:43;24.40;99.90
5846;DHT22;2949;50.778;7.094;2022-08-19T07:12:13;24.40;99.90
5846;DHT22;2949;50.778;7.094;2022-08-19T07:14:41;24.30;99.90
5846;DHT22;2949;50.778;7.094;2022-08-19T07:17:09;24.50;99.90
5846;DHT22;2949;50.778;7.094;2022-08-19T07:19:35;24.60;99.90
5846;DHT22;2949;50.778;7.094;2022-08-19T07:22:03;24.70;99.90
5846;DHT22;2949;50.778;7.094;2022-08-19T07:24:30;24.90;99.90
5846;DHT22;2949;50.778;7.094;2022-08-19T07:26:58;25.40;99.90
5846;DHT22;2949;50.778;7.094;2022-08-19T07:29:30;26.10;99.90
5846;DHT22;2949;50.778;7.094;2022-08-19T07:31:59;26.90;99.90
5846;DHT22;2949;50.778;7.094;2022-08-19T07:34:26;28.50;99.90
5846;DHT22;2949;50.778;7.094;2022-08-19T07:36:53;30.00;99.90
5846;DHT22;2949;50.778;7.094;2022-08-19T07:39:27;30.60;99.90
5846;DHT22;2949;50.778;7.094;2022-08-19T07:41:55;30.80;99.20
5846;DHT22;2949;50.778;7.094;2022-08-19T07:44:21;31.10;97.40
5846;DHT22;2949;50.778;7.094;2022-08-19T07:46:50;31.00;96.00
5846;DHT22;2949;50.778;7.094;2022-08-19T07:49:17;31.10;96.20
5846;DHT22;2949;50.778;7.094;2022-08-19T07:51:50;31.30;95.30
5846;DHT22;2949;50.778;7.094;2022-08-19T07:54:16;31.90;93.90
5846;DHT22;2949;50.778;7.094;2022-08-19T07:56:42;32.80;91.70
5846;DHT22;2949;50.778;7.094;2022-08-19T07:59:08;33.10;89.60
5846;DHT22;2949;50.778;7.094;2022-08-19T08:01:34;33.20;86.80
5846;DHT22;2949;50.778;7.094;2022-08-19T08:04:00;32.50;88.30
5846;DHT22;2949;50.778;7.094;2022-08-19T08:06:44;32.00;88.20
5846;DHT22;2949;50.778;7.094;2022-08-19T08:09:34;32.20;89.20
5846;DHT22;2949;50.778;7.094;2022-08-19T08:12:05;33.10;83.20
5846;DHT22;2949;50.778;7.094;2022-08-19T08:14:44;32.60;83.50
5846;DHT22;2949;50.778;7.094;2022-08-19T08:17:11;31.10;88.70
5846;DHT22;2949;50.778;7.094;2022-08-19T08:19:38;30.80;90.60
5846;DHT22;2949;50.778;7.094;2022-08-19T08:22:06;30.30;91.20
5846;DHT22;2949;50.778;7.094;2022-08-19T08:24:32;29.90;92.20
5846;DHT22;2949;50.778;7.094;2022-08-19T08:27:00;29.10;94.80
5846;DHT22;2949;50.778;7.094;2022-08-19T08:29:27;28.70;95.90
5846;DHT22;2949;50.778;7.094;2022-08-19T08:31:53;28.60;97.10
5846;DHT22;2949;50.778;7.094;2022-08-19T08:34:20;28.40;97.30
5846;DHT22;2949;50.778;7.094;2022-08-19T08:36:46;28.30;97.60
5846;DHT22;2949;50.778;7.094;2022-08-19T08:39:17;28.60;97.90
5846;DHT22;2949;50.778;7.094;2022-08-19T08:41:51;29.70;96.30
5846;DHT22;2949;50.778;7.094;2022-08-19T08:47:00;32.70;87.70
5846;DHT22;2949;50.778;7.094;2022-08-19T08:49:50;32.20;86.50
5846;DHT22;2949;50.778;7.094;2022-08-19T08:53:05;32.50;85.70
5846;DHT22;2949;50.778;7.094;2022-08-19T08:55:31;32.90;82.80
5846;DHT22;2949;50.778;7.094;2022-08-19T08:58:12;33.20;81.00
5846;DHT22;2949;50.778;7.094;2022-08-19T09:00:46;33.70;80.00
5846;DHT22;2949;50.778;7.094;2022-08-19T09:03:27;34.30;77.50
5846;DHT22;2949;50.778;7.094;2022-08-19T09:11:41;36.90;67.10
5846;DHT22;2949;50.778;7.094;2022-08-19T09:16:44;37.20;63.40
5846;DHT22;2949;50.778;7.094;2022-08-19T09:19:09;37.30;62.70
5846;DHT22;2949;50.778;7.094;2022-08-19T09:21:37;37.60;61.40
5846;DHT22;2949;50.778;7.094;2022-08-19T09:24:04;37.60;60.10
5846;DHT22;2949;50.778;7.094;2022-08-19T09:26:30;37.70;59.50
5846;DHT22;2949;50.778;7.094;2022-08-19T09:28:57;38.00;58.50
5846;DHT22;2949;50.778;7.094;2022-08-19T09:31:27;37.30;59.40
5846;DHT22;2949;50.778;7.094;2022-08-19T09:33:53;36.30;61.30
5846;DHT22;2949;50.778;7.094;2022-08-19T09:36:30;35.90;62.30
5846;DHT22;2949;50.778;7.094;2022-08-19T09:38:59;36.40;61.10
5846;DHT22;2949;50.778;7.094;2022-08-19T09:41:26;36.50;60.60
5846;DHT22;2949;50.778;7.094;2022-08-19T09:43:54;36.80;60.00
5846;DHT22;2949;50.778;7.094;2022-08-19T09:46:22;36.80;59.10
5846;DHT22;2949;50.778;7.094;2022-08-19T09:48:49;36.60;59.70
5846;DHT22;2949;50.778;7.094;2022-08-19T09:51:20;36.10;60.20
5846;DHT22;2949;50.778;7.094;2022-08-19T09:53:47;35.90;60.80
5846;DHT22;2949;50.778;7.094;2022-08-19T09:56:16;36.60;59.70
5846;DHT22;2949;50.778;7.094;2022-08-19T09:58:42;37.20;58.20
5846;DHT22;2949;50.778;7.094;2022-08-19T10:01:16;37.20;57.80
5846;DHT22;2949;50.778;7.094;2022-08-19T10:03:42;37.50;57.20
5846;DHT22;2949;50.778;7.094;2022-08-19T10:06:07;37.90;55.00
5846;DHT22;2949;50.778;7.094;2022-08-19T10:08:36;37.90;54.00
5846;DHT22;2949;50.778;7.094;2022-08-19T10:11:03;37.30;53.60
5846;DHT22;2949;50.778;7.094;2022-08-19T10:13:31;36.10;55.60
5846;DHT22;2949;50.778;7.094;2022-08-19T10:16:06;35.60;57.90
5846;DHT22;2949;50.778;7.094;2022-08-19T10:18:33;36.10;56.50
5846;DHT22;2949;50.778;7.094;2022-08-19T10:21:11;36.50;56.00
5846;DHT22;2949;50.778;7.094;2022-08-19T10:23:38;36.60;55.90
5846;DHT22;2949;50.778;7.094;2022-08-19T10:26:06;36.80;54.30
5846;DHT22;2949;50.778;7.094;2022-08-19T10:28:34;36.70;54.20
5846;DHT22;2949;50.778;7.094;2022-08-19T10:31:07;36.90;53.70
5846;DHT22;2949;50.778;7.094;2022-08-19T10:33:34;37.30;53.50
5846;DHT22;2949;50.778;7.094;2022-08-19T10:36:07;37.20;53.00
5846;DHT22;2949;50.778;7.094;2022-08-19T10:38:34;36.60;53.30
5846;DHT22;2949;50.778;7.094;2022-08-19T10:41:14;36.40;53.20
5846;DHT22;2949;50.778;7.094;2022-08-19T10:43:41;36.20;53.70
5846;DHT22;2949;50.778;7.094;2022-08-19T10:46:12;34.40;56.20
5846;DHT22;2949;50.778;7.094;2022-08-19T10:48:39;33.90;56.50
5846;DHT22;2949;50.778;7.094;2022-08-19T10:51:04;34.10;56.00
5846;DHT22;2949;50.778;7.094;2022-08-19T10:53:50;33.30;57.50
5846;DHT22;2949;50.778;7.094;2022-08-19T10:56:18;32.20;60.30
5846;DHT22;2949;50.778;7.094;2022-08-19T10:59:03;32.30;60.50
5846;DHT22;2949;50.778;7.094;2022-08-19T11:01:30;32.60;59.30
5846;DHT22;2949;50.778;7.094;2022-08-19T11:03:57;32.40;59.80
5846;DHT22;2949;50.778;7.094;2022-08-19T11:06:23;32.10;60.70
5846;DHT22;2949;50.778;7.094;2022-08-19T11:08:51;32.20;61.60
5846;DHT22;2949;50.778;7.094;2022-08-19T11:11:17;32.20;61.20
5846;DHT22;2949;50.778;7.094;2022-08-19T11:13:43;31.90;61.40
5846;DHT22;2949;50.778;7.094;2022-08-19T11:16:17;31.50;61.80
5846;DHT22;2949;50.778;7.094;2022-08-19T11:18:49;31.10;62.40
5846;DHT22;2949;50.778;7.094;2022-08-19T11:21:21;30.80;63.70
5846;DHT22;2949;50.778;7.094;2022-08-19T11:23:48;30.90;63.90
5846;DHT22;2949;50.778;7.094;2022-08-19T11:26:16;31.10;63.00
5846;DHT22;2949;50.778;7.094;2022-08-19T11:28:42;30.80;62.70
5846;DHT22;2949;50.778;7.094;2022-08-19T11:31:17;30.30;63.90
5846;DHT22;2949;50.778;7.094;2022-08-19T11:33:44;29.90;65.30
5846;DHT22;2949;50.778;7.094;2022-08-19T11:36:10;30.20;65.40
5846;DHT22;2949;50.778;7.094;2022-08-19T11:38:36;30.20;65.10
5846;DHT22;2949;50.778;7.094;2022-08-19T11:41:06;30.10;65.20
5846;DHT22;2949;50.778;7.094;2022-08-19T11:43:33;29.90;66.20
5846;DHT22;2949;50.778;7.094;2022-08-19T11:45:59;30.10;66.10
5846;DHT22;2949;50.778;7.094;2022-08-19T11:48:25;30.50;64.90
5846;DHT22;2949;50.778;7.094;2022-08-19T11:50:53;30.80;63.70
5846;DHT22;2949;50.778;7.094;2022-08-19T11:53:22;30.70;63.50
5846;DHT22;2949;50.778;7.094;2022-08-19T11:55:52;30.40;64.40
5846;DHT22;2949;50.778;7.094;2022-08-19T11:58:21;30.30;64.70
5846;DHT22;2949;50.778;7.094;2022-08-19T12:00:46;30.00;65.60
5846;DHT22;2949;50.778;7.094;2022-08-19T12:03:13;29.50;68.00
5846;DHT22;2949;50.778;7.094;2022-08-19T12:05:40;29.20;67.40
5846;DHT22;2949;50.778;7.094;2022-08-19T12:08:06;29.30;67.20
5846;DHT22;2949;50.778;7.094;2022-08-19T12:10:32;29.30;67.50
5846;DHT22;2949;50.778;7.094;2022-08-19T12:12:58;29.10;67.90
5846;DHT22;2949;50.778;7.094;2022-08-19T12:15:24;29.10;67.20
5846;DHT22;2949;50.778;7.094;2022-08-19T12:17:50;29.30;67.40
5846;DHT22;2949;50.778;7.094;2022-08-19T12:20:17;29.50;66.80
5846;DHT22;2949;50.778;7.094;2022-08-19T12:22:43;29.30;66.50
5846;DHT22;2949;50.778;7.094;2022-08-19T12:25:10;29.00;67.60
5846;DHT22;2949;50.778;7.094;2022-08-19T12:27:37;28.80;68.30
5846;DHT22;2949;50.778;7.094;2022-08-19T12:30:05;28.70;69.10
5846;DHT22;2949;50.778;7.094;2022-08-19T12:32:31;28.90;68.70
5846;DHT22;2949;50.778;7.094;2022-08-19T12:34:56;29.20;68.10
5846;DHT22;2949;50.778;7.094;2022-08-19T12:37:22;29.30;66.40
5846;DHT22;2949;50.778;7.094;2022-08-19T12:39:48;29.30;65.20
5846;DHT22;2949;50.778;7.094;2022-08-19T12:42:14;29.30;65.20
5846;DHT22;2949;50.778;7.094;2022-08-19T12:44:41;29.60;64.80
5846;DHT22;2949;50.778;7.094;2022-08-19T12:47:09;29.30;65.20
5846;DHT22;2949;50.778;7.094;2022-08-19T12:49:36;29.00;66.70
5846;DHT22;2949;50.778;7.094;2022-08-19T12:52:06;28.90;66.80
5846;DHT22;2949;50.778;7.094;2022-08-19T12:54:34;28.80;67.40
5846;DHT22;2949;50.778;7.094;2022-08-19T12:57:00;29.00;67.10
5846;DHT22;2949;50.778;7.094;2022-08-19T12:59:26;29.20;66.00
5846;DHT22;2949;50.778;7.094;2022-08-19T13:01:52;29.20;65.50
5846;DHT22;2949;50.778;7.094;2022-08-19T13:04:18;29.20;65.40
5846;DHT22;2949;50.778;7.094;2022-08-19T13:06:44;29.30;64.60
5846;DHT22;2949;50.778;7.094;2022-08-19T13:09:10;29.30;64.40
5846;DHT22;2949;50.778;7.094;2022-08-19T13:11:37;29.20;62.60
5846;DHT22;2949;50.778;7.094;2022-08-19T13:14:03;29.20;63.50
5846;DHT22;2949;50.778;7.094;2022-08-19T13:16:29;29.20;63.50
5846;DHT22;2949;50.778;7.094;2022-08-19T13:18:56;29.20;63.30
5846;DHT22;2949;50.778;7.094;2022-08-19T13:21:24;28.90;63.10
5846;DHT22;2949;50.778;7.094;2022-08-19T13:23:51;28.90;64.90
5846;DHT22;2949;50.778;7.094;2022-08-19T13:26:17;29.00;64.30
5846;DHT22;2949;50.778;7.094;2022-08-19T13:28:44;28.90;63.80
5846;DHT22;2949;50.778;7.094;2022-08-19T13:31:31;28.70;62.70
5846;DHT22;2949;50.778;7.094;2022-08-19T13:34:18;28.70;62.60
5846;DHT22;2949;50.778;7.094;2022-08-19T13:36:48;28.70;65.40
5846;DHT22;2949;50.778;7.094;2022-08-19T13:39:13;28.80;65.60
5846;DHT22;2949;50.778;7.094;2022-08-19T13:41:44;28.80;66.70
5846;DHT22;2949;50.778;7.094;2022-08-19T13:44:13;29.00;65.20
5846;DHT22;2949;50.778;7.094;2022-08-19T13:46:39;29.10;63.70
5846;DHT22;2949;50.778;7.094;2022-08-19T13:49:05;29.00;61.70
5846;DHT22;2949;50.778;7.094;2022-08-19T13:51:30;28.80;61.60
5846;DHT22;2949;50.778;7.094;2022-08-19T13:53:56;28.70;61.80
5846;DHT22;2949;50.778;7.094;2022-08-19T13:56:21;28.60;63.00
5846;DHT22;2949;50.778;7.094;2022-08-19T13:58:47;28.60;62.70
5846;DHT22;2949;50.778;7.094;2022-08-19T14:01:19;28.50;60.70
5846;DHT22;2949;50.778;7.094;2022-08-19T14:03:45;28.60;61.50
5846;DHT22;2949;50.778;7.094;2022-08-19T14:06:10;28.80;61.70
5846;DHT22;2949;50.778;7.094;2022-08-19T14:08:36;29.10;61.70
5846;DHT22;2949;50.778;7.094;2022-08-19T14:11:04;29.20;60.90
5846;DHT22;2949;50.778;7.094;2022-08-19T14:13:30;29.20;60.70
5846;DHT22;2949;50.778;7.094;2022-08-19T14:15:58;29.20;61.00
5846;DHT22;2949;50.778;7.094;2022-08-19T14:18:23;29.20;59.90
5846;DHT22;2949;50.778;7.094;2022-08-19T14:20:50;29.00;59.60
5846;DHT22;2949;50.778;7.094;2022-08-19T14:23:16;28.90;60.90
5846;DHT22;2949;50.778;7.094;2022-08-19T14:25:43;29.00;60.70
5846;DHT22;2949;50.778;7.094;2022-08-19T14:28:09;29.10;61.30
5846;DHT22;2949;50.778;7.094;2022-08-19T14:30:36;29.20;60.40
5846;DHT22;2949;50.778;7.094;2022-08-19T14:33:04;29.10;60.70
5846;DHT22;2949;50.778;7.094;2022-08-19T14:35:31;29.10;61.20
5846;DHT22;2949;50.778;7.094;2022-08-19T14:38:04;29.00;60.10
5846;DHT22;2949;50.778;7.094;2022-08-19T14:40:31;29.00;60.00
5846;DHT22;2949;50.778;7.094;2022-08-19T14:43:00;29.00;59.50
5846;DHT22;2949;50.778;7.094;2022-08-19T14:45:35;29.00;60.70
5846;DHT22;2949;50.778;7.094;2022-08-19T14:48:00;29.00;61.00
5846;DHT22;2949;50.778;7.094;2022-08-19T14:50:27;28.80;61.40
5846;DHT22;2949;50.778;7.094;2022-08-19T14:53:02;28.80;61.40
5846;DHT22;2949;50.778;7.094;2022-08-19T14:55:30;28.80;62.00
5846;DHT22;2949;50.778;7.094;2022-08-19T14:57:55;29.00;61.20
5846;DHT22;2949;50.778;7.094;2022-08-19T15:00:22;29.00;61.10
5846;DHT22;2949;50.778;7.094;2022-08-19T15:02:49;29.00;61.30
5846;DHT22;2949;50.778;7.094;2022-08-19T15:05:14;29.00;60.30
5846;DHT22;2949;50.778;7.094;2022-08-19T15:07:40;28.80;60.10
5846;DHT22;2949;50.778;7.094;2022-08-19T15:10:07;28.70;61.60
5846;DHT22;2949;50.778;7.094;2022-08-19T15:12:36;28.50;62.80
5846;DHT22;2949;50.778;7.094;2022-08-19T15:15:06;28.30;62.80
5846;DHT22;2949;50.778;7.094;2022-08-19T15:17:32;28.30;62.90
5846;DHT22;2949;50.778;7.094;2022-08-19T15:19:58;28.30;62.90
5846;DHT22;2949;50.778;7.094;2022-08-19T15:22:23;28.40;62.10
5846;DHT22;2949;50.778;7.094;2022-08-19T15:24:49;28.30;62.50
5846;DHT22;2949;50.778;7.094;2022-08-19T15:27:14;28.20;62.60
5846;DHT22;2949;50.778;7.094;2022-08-19T15:29:40;28.30;62.80
5846;DHT22;2949;50.778;7.094;2022-08-19T15:32:07;28.40;61.70
5846;DHT22;2949;50.778;7.094;2022-08-19T15:34:33;28.50;62.30
5846;DHT22;2949;50.778;7.094;2022-08-19T15:37:00;28.60;62.30
5846;DHT22;2949;50.778;7.094;2022-08-19T15:39:25;28.60;61.60
5846;DHT22;2949;50.778;7.094;2022-08-19T15:41:51;28.60;61.10
5846;DHT22;2949;50.778;7.094;2022-08-19T15:44:18;28.50;60.30
5846;DHT22;2949;50.778;7.094;2022-08-19T15:46:45;28.60;59.70
5846;DHT22;2949;50.778;7.094;2022-08-19T15:49:13;28.60;59.50
5846;DHT22;2949;50.778;7.094;2022-08-19T15:51:40;28.70;58.40
5846;DHT22;2949;50.778;7.094;2022-08-19T15:54:09;28.60;58.10
5846;DHT22;2949;50.778;7.094;2022-08-19T15:56:36;28.50;57.30
5846;DHT22;2949;50.778;7.094;2022-08-19T15:59:20;28.50;59.10
5846;DHT22;2949;50.778;7.094;2022-08-19T16:02:04;28.50;59.30
5846;DHT22;2949;50.778;7.094;2022-08-19T16:04:50;28.30;60.20
5846;DHT22;2949;50.778;7.094;2022-08-19T16:07:34;28.00;61.40
5846;DHT22;2949;50.778;7.094;2022-08-19T16:09:59;27.70;62.50
5846;DHT22;2949;50.778;7.094;2022-08-19T16:12:25;27.60;63.40
5846;DHT22;2949;50.778;7.094;2022-08-19T16:14:52;27.50;64.50
5846;DHT22;2949;50.778;7.094;2022-08-19T16:17:18;27.20;65.30
5846;DHT22;2949;50.778;7.094;2022-08-19T16:19:44;27.20;66.40
5846;DHT22;2949;50.778;7.094;2022-08-19T16:22:10;27.50;66.20